San Jose, Guatemala
Current Conditions -  °F | °C
As of 3:00 PM on Tuesday 21 Oct 2014 (Local Time) from MGSJ Reporting Station
Broken Clouds Broken Clouds  
Wind Chill: 86°   Ceiling: 20000
Heat Index: 92°   Visibility: 6mi
Dew Point: 72°   Wind: 7mph
Humidity: 62%   Direction: 180°S
Pressure: 29.77"   Gusts: NA
Location:  13.92°N, 90.82°W
Report Text: MGSJ 212100Z 18006KT 9999 SCT020TCU BKN200 30/22 Q1008 A2977 TCU SMC N
Loading
Personal Weather Stations






























Interactive Weather Map
Tropical Storm Tracking
New forecast layout! Learn more

10-Day Weather Forecast

Advertisements
Track Severe Weather on mobile